createdAt,value
2018-04-04T00:01:46.126Z,15.59
2018-04-04T00:04:15.145Z,15.56
2018-04-04T00:06:43.386Z,15.52
2018-04-04T00:09:11.654Z,15.49
2018-04-04T00:11:39.903Z,15.50
2018-04-04T00:14:08.147Z,15.47
2018-04-04T00:16:36.403Z,15.57
2018-04-04T00:19:05.415Z,15.49
2018-04-04T00:21:33.720Z,15.47
2018-04-04T00:24:01.907Z,15.49
2018-04-04T00:26:30.154Z,15.43
2018-04-04T00:28:58.421Z,15.47
2018-04-04T00:31:26.678Z,15.47
2018-04-04T00:33:55.689Z,15.38
2018-04-04T00:36:23.946Z,15.34
2018-04-04T00:38:52.958Z,15.36
2018-04-04T00:41:21.220Z,15.31
2018-04-04T00:43:49.465Z,15.25
2018-04-04T00:46:17.718Z,15.24
2018-04-04T00:48:45.973Z,15.17
2018-04-04T00:51:14.226Z,15.15
2018-04-04T00:53:42.477Z,15.14
2018-04-04T00:56:10.937Z,15.07
2018-04-04T00:58:39.192Z,15.09
2018-04-04T01:01:07.435Z,14.90
2018-04-04T01:03:35.698Z,14.90
2018-04-04T01:06:04.710Z,14.93
2018-04-04T01:08:32.967Z,14.97
2018-04-04T01:11:01.974Z,14.93
2018-04-04T01:13:30.226Z,14.91
2018-04-04T01:15:59.240Z,14.93
2018-04-04T01:18:27.492Z,14.85
2018-04-04T01:20:56.509Z,14.89
2018-04-04T01:23:24.754Z,14.83
2018-04-04T01:25:52.998Z,14.75
2018-04-04T01:28:21.250Z,14.85
2018-04-04T01:30:49.493Z,14.80
2018-04-04T01:33:18.510Z,14.84
2018-04-04T01:35:46.757Z,14.76
2018-04-04T01:38:15.770Z,14.69
2018-04-04T01:40:44.018Z,14.62
2018-04-04T01:43:13.039Z,14.59
2018-04-04T01:45:41.282Z,14.59
2018-04-04T01:48:09.581Z,14.48
2018-04-04T01:50:37.788Z,14.51
2018-04-04T01:53:06.054Z,14.52
2018-04-04T01:55:34.305Z,14.41
2018-04-04T01:58:03.321Z,14.33
2018-04-04T02:00:31.570Z,14.37
2018-04-04T02:03:00.579Z,14.33
2018-04-04T02:05:28.825Z,14.33
2018-04-04T02:07:57.071Z,14.48
2018-04-04T02:10:25.326Z,14.46
2018-04-04T02:12:53.573Z,14.42
2018-04-04T02:15:21.830Z,14.40
2018-04-04T02:17:50.076Z,14.33
2018-04-04T02:20:18.335Z,14.35
2018-04-04T02:22:46.584Z,14.30
2018-04-04T02:25:14.839Z,14.25
2018-04-04T02:27:43.853Z,14.19
2018-04-04T02:30:12.129Z,14.22
2018-04-04T02:32:40.380Z,14.16
2018-04-04T02:35:09.399Z,14.13
2018-04-04T02:37:37.651Z,14.00
2018-04-04T02:40:06.667Z,13.89
2018-04-04T02:42:34.922Z,13.79
2018-04-04T02:45:03.936Z,13.75
2018-04-04T02:47:32.191Z,13.73
2018-04-04T02:50:01.203Z,13.64
2018-04-04T02:52:29.450Z,13.51
2018-04-04T02:54:58.465Z,13.51
2018-04-04T02:57:26.720Z,13.46
2018-04-04T02:59:55.730Z,13.30
2018-04-04T03:02:23.989Z,13.02
2018-04-04T03:04:53.011Z,12.59
2018-04-04T03:07:21.263Z,12.50
2018-04-04T03:09:49.518Z,12.45
2018-04-04T03:12:17.769Z,12.55
2018-04-04T03:14:46.021Z,12.61
2018-04-04T03:17:14.266Z,12.59
2018-04-04T03:19:43.291Z,12.54
2018-04-04T03:22:11.534Z,12.47
2018-04-04T03:24:40.554Z,12.39
2018-04-04T03:27:08.800Z,12.37
2018-04-04T03:29:37.055Z,12.37
2018-04-04T03:32:05.305Z,12.34
2018-04-04T03:34:34.340Z,12.37
2018-04-04T03:37:03.350Z,12.47
2018-04-04T03:39:31.593Z,12.47
2018-04-04T03:41:59.841Z,12.41
2018-04-04T03:44:28.101Z,12.35
2018-04-04T03:46:56.369Z,12.48
2018-04-04T03:49:24.616Z,12.35
2018-04-04T03:51:53.633Z,12.39
2018-04-04T03:54:21.893Z,12.31
2018-04-04T03:56:50.158Z,12.28
2018-04-04T03:59:19.177Z,12.28
2018-04-04T04:01:47.434Z,12.30
2018-04-04T04:04:16.446Z,12.27
2018-04-04T04:06:44.704Z,12.36
2018-04-04T04:09:12.958Z,12.32
2018-04-04T04:11:41.215Z,12.34
2018-04-04T04:14:09.458Z,12.49
2018-04-04T04:16:37.714Z,12.40
2018-04-04T04:19:05.959Z,12.31
2018-04-04T04:21:34.217Z,12.35
2018-04-04T04:24:02.465Z,12.46
2018-04-04T04:26:30.718Z,12.29
2018-04-04T04:28:58.954Z,12.23
2018-04-04T04:31:27.209Z,12.42
2018-04-04T04:33:55.457Z,12.31
2018-04-04T04:36:23.706Z,12.31
2018-04-04T04:38:51.963Z,12.26
2018-04-04T04:41:20.204Z,12.06
2018-04-04T04:43:48.457Z,11.93
2018-04-04T04:46:16.710Z,11.81
2018-04-04T04:48:44.966Z,11.72
2018-04-04T04:51:13.978Z,11.81
2018-04-04T04:53:42.232Z,11.81
2018-04-04T04:56:11.249Z,11.82
2018-04-04T04:58:39.506Z,11.88
2018-04-04T05:01:08.522Z,11.97
2018-04-04T05:03:36.773Z,12.06
2018-04-04T05:06:05.784Z,12.13
2018-04-04T05:08:34.033Z,12.14
2018-04-04T05:11:02.317Z,12.14
2018-04-04T05:13:30.562Z,12.32
2018-04-04T05:15:58.813Z,12.40
2018-04-04T05:18:27.065Z,12.52
2018-04-04T05:20:55.314Z,12.61
2018-04-04T05:23:23.566Z,12.73
2018-04-04T05:25:51.823Z,12.81
2018-04-04T05:28:20.077Z,12.89
2018-04-04T05:30:48.321Z,13.26
2018-04-04T05:33:17.346Z,13.24
2018-04-04T05:35:45.592Z,13.23
2018-04-04T05:38:14.610Z,13.29
2018-04-04T05:40:42.856Z,13.35
2018-04-04T05:43:11.153Z,13.36
2018-04-04T05:45:39.357Z,13.40
2018-04-04T05:48:07.605Z,13.32
2018-04-04T05:50:35.867Z,13.27
2018-04-04T05:53:04.874Z,13.31
2018-04-04T05:55:33.131Z,13.40
2018-04-04T05:58:07.731Z,13.36
2018-04-04T06:00:35.984Z,13.33
2018-04-04T06:03:04.236Z,13.28
2018-04-04T06:05:32.486Z,13.23
2018-04-04T06:08:01.494Z,13.16
2018-04-04T06:10:29.749Z,13.14
2018-04-04T06:12:58.758Z,13.17
2018-04-04T06:15:27.017Z,13.19
2018-04-04T06:17:56.033Z,13.20
2018-04-04T06:20:24.293Z,13.13
2018-04-04T06:22:53.300Z,12.98
2018-04-04T06:25:21.560Z,12.97
2018-04-04T06:27:50.576Z,12.85
2018-04-04T06:30:18.834Z,12.85
2018-04-04T06:32:47.835Z,12.96
2018-04-04T06:35:16.086Z,12.66
2018-04-04T06:37:44.340Z,12.75
2018-04-04T06:40:12.590Z,12.70
2018-04-04T06:42:40.838Z,12.73
2018-04-04T06:45:09.083Z,12.75
2018-04-04T06:47:37.338Z,12.83
2018-04-04T06:50:05.597Z,12.80
2018-04-04T06:52:33.849Z,12.75
2018-04-04T06:55:02.107Z,12.83
2018-04-04T06:57:31.117Z,12.97
2018-04-04T06:59:59.365Z,12.79
2018-04-04T07:02:28.484Z,12.88
2018-04-04T07:04:56.737Z,13.00
2018-04-04T07:07:25.820Z,12.77
2018-04-04T07:09:53.997Z,12.94
2018-04-04T07:12:22.252Z,13.10
2018-04-04T07:14:50.498Z,12.94
2018-04-04T07:17:18.750Z,13.10
2018-04-04T07:19:46.998Z,13.29
2018-04-04T07:22:15.254Z,13.01
2018-04-04T07:24:43.506Z,13.17
2018-04-04T07:27:11.753Z,13.31
2018-04-04T07:29:40.000Z,13.41
2018-04-04T07:32:09.021Z,13.57
2018-04-04T07:34:37.268Z,13.74
2018-04-04T07:37:05.521Z,13.90
2018-04-04T07:39:33.777Z,14.09
2018-04-04T07:42:02.027Z,14.28
2018-04-04T07:44:30.269Z,14.31
2018-04-04T07:46:58.526Z,14.73
2018-04-04T07:49:26.784Z,14.81
2018-04-04T07:51:55.129Z,15.15
2018-04-04T07:54:23.387Z,15.54
2018-04-04T07:56:52.414Z,15.58
2018-04-04T07:59:20.674Z,15.55
2018-04-04T08:01:48.925Z,15.75
2018-04-04T08:04:17.178Z,15.95
2018-04-04T08:06:45.429Z,15.93
2018-04-04T08:09:13.686Z,15.84
2018-04-04T08:11:41.952Z,15.94
2018-04-04T08:14:10.252Z,16.32
2018-04-04T08:16:39.221Z,16.29
2018-04-04T08:19:07.486Z,16.23
2018-04-04T08:21:36.493Z,16.35
2018-04-04T08:24:04.742Z,16.49
2018-04-04T08:26:33.771Z,16.24
2018-04-04T08:29:02.017Z,16.28
2018-04-04T08:31:31.033Z,16.76
2018-04-04T08:33:59.282Z,16.91
2018-04-04T08:36:28.307Z,16.48
2018-04-04T08:38:56.549Z,16.64
2018-04-04T08:41:24.807Z,16.59
2018-04-04T08:43:53.053Z,16.49
2018-04-04T08:46:21.312Z,16.64
2018-04-04T08:48:49.558Z,17.19
2018-04-04T08:51:18.596Z,17.36
2018-04-04T08:53:46.837Z,17.35
2018-04-04T08:56:15.086Z,17.33
2018-04-04T08:58:43.340Z,17.37
2018-04-04T09:01:11.635Z,16.81
2018-04-04T09:03:39.918Z,16.93
2018-04-04T09:06:08.219Z,17.03
2018-04-04T09:08:36.502Z,17.75
2018-04-04T09:11:04.784Z,17.60
2018-04-04T09:13:33.066Z,17.36
2018-04-04T09:16:01.353Z,18.04
2018-04-04T09:18:29.639Z,17.94
2018-04-04T09:20:57.914Z,18.71
2018-04-04T09:23:26.199Z,18.43
2018-04-04T09:25:54.482Z,18.75
2018-04-04T09:28:22.771Z,18.69
2018-04-04T09:30:51.048Z,18.29
2018-04-04T09:33:19.333Z,18.80
2018-04-04T09:35:48.386Z,18.96
2018-04-04T09:38:16.673Z,19.33
2018-04-04T09:40:44.948Z,18.60
2018-04-04T09:43:13.244Z,18.90
2018-04-04T09:45:41.527Z,19.14
2018-04-04T09:48:09.811Z,19.15
2018-04-04T09:50:38.082Z,18.63
2018-04-04T09:53:06.371Z,18.60
2018-04-04T09:55:35.415Z,18.84
2018-04-04T09:58:03.692Z,18.69
2018-04-04T10:00:38.180Z,18.66
2018-04-04T10:03:07.212Z,17.93
2018-04-04T10:05:35.513Z,18.36
2018-04-04T10:08:03.791Z,18.68
2018-04-04T10:10:32.080Z,19.00
2018-04-04T10:13:01.127Z,18.68
2018-04-04T10:15:29.413Z,18.59
2018-04-04T10:17:57.695Z,19.01
2018-04-04T10:20:25.989Z,18.89
2018-04-04T10:22:54.264Z,18.88
2018-04-04T10:25:22.544Z,19.08
2018-04-04T10:27:50.825Z,19.57
2018-04-04T10:30:19.117Z,19.65
2018-04-04T10:32:48.159Z,18.96
2018-04-04T10:35:17.212Z,19.74
2018-04-04T10:37:45.496Z,19.42
2018-04-04T10:40:13.783Z,19.32
2018-04-04T10:42:42.072Z,19.46
2018-04-04T10:45:10.372Z,19.69
2018-04-04T10:47:38.655Z,19.72
2018-04-04T10:50:06.955Z,19.41
2018-04-04T10:52:35.235Z,19.26
2018-04-04T10:55:03.525Z,19.66
2018-04-04T10:57:31.807Z,19.72
2018-04-04T11:00:00.095Z,19.55
2018-04-04T11:02:28.383Z,19.42
2018-04-04T11:04:56.668Z,19.73
2018-04-04T11:07:24.968Z,19.31
2018-04-04T11:09:53.244Z,20.24
2018-04-04T11:12:21.546Z,20.61
2018-04-04T11:14:50.588Z,20.88
2018-04-04T11:17:18.880Z,21.44
2018-04-04T11:19:47.172Z,21.86
2018-04-04T11:22:15.455Z,22.08
2018-04-04T11:24:43.736Z,22.11
2018-04-04T11:27:12.790Z,21.65
2018-04-04T11:29:41.836Z,22.18
2018-04-04T11:32:10.886Z,21.14
2018-04-04T11:34:39.981Z,21.82
2018-04-04T11:37:09.048Z,21.43
2018-04-04T11:39:37.333Z,21.43
2018-04-04T11:42:05.611Z,21.42
2018-04-04T11:44:33.884Z,20.79
2018-04-04T11:47:02.175Z,21.79
2018-04-04T11:49:30.449Z,21.68
2018-04-04T11:51:58.729Z,21.76
2018-04-04T11:54:27.004Z,21.88
2018-04-04T11:56:55.300Z,21.57
2018-04-04T11:59:23.575Z,21.54
2018-04-04T12:01:51.850Z,22.34
2018-04-04T12:04:20.147Z,22.49
2018-04-04T12:06:49.192Z,21.84
2018-04-04T12:09:17.471Z,22.07
2018-04-04T12:11:45.753Z,21.96
2018-04-04T12:14:14.048Z,22.40
2018-04-04T12:16:42.330Z,21.56
2018-04-04T12:19:10.616Z,22.59
2018-04-04T12:21:39.679Z,22.35
2018-04-04T12:24:07.981Z,22.50
2018-04-04T12:26:36.273Z,22.64
2018-04-04T12:29:05.342Z,22.36
2018-04-04T12:31:33.616Z,23.12
2018-04-04T12:34:01.916Z,22.64
2018-04-04T12:36:30.965Z,22.79
2018-04-04T12:38:59.252Z,22.66
2018-04-04T12:41:27.535Z,22.98
2018-04-04T12:43:55.837Z,23.57
2018-04-04T12:46:24.883Z,23.07
2018-04-04T12:48:53.164Z,22.96
2018-04-04T12:51:22.219Z,23.28
2018-04-04T12:53:50.499Z,23.17
2018-04-04T12:56:18.786Z,23.40
2018-04-04T12:58:47.095Z,24.10
2018-04-04T13:01:15.376Z,23.52
2018-04-04T13:03:43.652Z,23.40
2018-04-04T13:06:12.357Z,23.73
2018-04-04T13:08:40.647Z,24.15
2018-04-04T13:11:08.944Z,23.05
2018-04-04T13:13:37.219Z,22.82
2018-04-04T13:16:05.520Z,23.35
2018-04-04T13:18:33.809Z,23.29
2018-04-04T13:21:02.107Z,23.38
2018-04-04T13:23:31.174Z,23.85
2018-04-04T13:25:59.451Z,23.75
2018-04-04T13:28:27.742Z,23.27
2018-04-04T13:30:56.040Z,23.65
2018-04-04T13:33:24.318Z,23.76
2018-04-04T13:35:52.617Z,23.20
2018-04-04T13:38:20.895Z,23.20
2018-04-04T13:40:49.202Z,22.61
2018-04-04T13:43:17.488Z,23.10
2018-04-04T13:45:45.782Z,23.06
2018-04-04T13:48:14.071Z,23.25
2018-04-04T13:50:42.368Z,23.00
2018-04-04T13:53:10.657Z,22.16
2018-04-04T13:55:38.957Z,21.32
2018-04-04T13:58:07.254Z,21.27
2018-04-04T14:00:35.537Z,21.13
2018-04-04T14:03:03.824Z,20.91
2018-04-04T14:05:32.109Z,20.79
2018-04-04T14:08:00.405Z,20.85
2018-04-04T14:10:29.452Z,20.90
2018-04-04T14:12:57.741Z,20.79
2018-04-04T14:15:26.029Z,20.71
2018-04-04T14:17:54.320Z,20.71
2018-04-04T14:20:23.368Z,20.75
2018-04-04T14:22:51.663Z,19.28
2018-04-04T14:25:19.936Z,16.65
2018-04-04T14:27:48.232Z,15.37
2018-04-04T14:30:16.535Z,14.71
2018-04-04T14:32:44.847Z,12.72
2018-04-04T14:35:13.161Z,-145.07
2018-04-04T14:37:42.238Z,-145.07
2018-04-04T14:40:10.541Z,-145.07
2018-04-04T14:42:39.617Z,-145.07
2018-04-04T14:45:07.877Z,-145.07
2018-04-04T14:47:36.158Z,-145.07
2018-04-04T14:50:04.423Z,-145.07
2018-04-04T14:52:32.690Z,-145.07
2018-04-04T14:55:00.953Z,-145.07
2018-04-04T14:57:29.217Z,-145.07
2018-04-04T14:59:57.482Z,-145.07
2018-04-04T15:02:25.749Z,-145.07
2018-04-04T15:04:54.027Z,-145.07
2018-04-04T15:07:22.290Z,-145.07
2018-04-04T15:09:51.329Z,-145.07
2018-04-04T15:12:19.594Z,-145.07
2018-04-04T15:14:47.856Z,-145.07
2018-04-04T15:17:16.126Z,-145.07
2018-04-04T15:19:44.390Z,-145.07
2018-04-04T15:22:13.419Z,-145.07
2018-04-04T15:24:41.687Z,-145.07
2018-04-04T15:27:09.946Z,-145.07
2018-04-04T15:29:38.218Z,-145.07
2018-04-04T15:32:06.481Z,-145.07
2018-04-04T15:34:35.521Z,-145.07
2018-04-04T15:37:03.785Z,-145.07
2018-04-04T15:39:32.061Z,-145.07
2018-04-04T15:42:00.321Z,-145.07
2018-04-04T15:44:28.589Z,-145.07
2018-04-04T15:46:56.854Z,-145.07
2018-04-04T15:49:25.898Z,-145.07
2018-04-04T15:51:54.156Z,-145.07
2018-04-04T15:54:22.419Z,-145.07
2018-04-04T15:56:50.683Z,-145.07
2018-04-04T15:59:19.707Z,-145.07
2018-04-04T16:01:47.978Z,-145.07
2018-04-04T16:04:16.235Z,-145.07
2018-04-04T16:06:44.498Z,-145.07
2018-04-04T16:09:13.525Z,-145.07
2018-04-04T16:11:41.797Z,-145.07
2018-04-04T16:14:10.061Z,-145.07
2018-04-04T16:16:38.330Z,-145.07
2018-04-04T16:19:06.591Z,-145.07
2018-04-04T16:21:35.621Z,-145.07
2018-04-04T16:24:03.876Z,-145.07
2018-04-04T16:26:32.149Z,-145.07
2018-04-04T16:29:00.402Z,-145.07
2018-04-04T16:31:29.433Z,-145.07
2018-04-04T16:33:57.691Z,-145.07
2018-04-04T16:36:25.953Z,-145.07
2018-04-04T16:38:54.983Z,-145.07
2018-04-04T16:41:23.245Z,-145.07
2018-04-04T16:43:51.500Z,-145.07
2018-04-04T16:46:19.776Z,-145.07
2018-04-04T16:48:48.795Z,-145.07
2018-04-04T16:51:17.073Z,-145.07
2018-04-04T16:53:45.368Z,-145.07
2018-04-04T16:56:13.627Z,-145.07
2018-04-04T16:58:41.903Z,-145.07
2018-04-04T17:01:10.171Z,-145.07
2018-04-04T17:03:38.441Z,-145.07
2018-04-04T17:06:06.715Z,-145.07
2018-04-04T17:08:34.988Z,-145.07
2018-04-04T17:11:03.249Z,-145.07
2018-04-04T17:13:31.526Z,-145.07
2018-04-04T17:16:00.566Z,-145.07
2018-04-04T17:18:28.854Z,-145.07
2018-04-04T17:20:57.118Z,-145.07
2018-04-04T17:23:25.385Z,-145.07
2018-04-04T17:25:53.654Z,-145.07
2018-04-04T17:28:21.925Z,-145.07
2018-04-04T17:30:50.194Z,-145.07
2018-04-04T17:33:18.456Z,-145.07
2018-04-04T17:35:46.722Z,-145.07
2018-04-04T17:38:15.757Z,-145.07
2018-04-04T17:40:44.018Z,-145.07
2018-04-04T17:43:12.303Z,-145.07
2018-04-04T17:45:40.558Z,-145.07
2018-04-04T17:48:08.838Z,-145.07
2018-04-04T17:50:37.106Z,-145.07
2018-04-04T17:53:05.388Z,-145.07
2018-04-04T17:55:33.646Z,-145.07
2018-04-04T17:58:02.674Z,-145.07
2018-04-04T18:00:30.956Z,-145.07
2018-04-04T18:02:59.228Z,-145.07
2018-04-04T18:05:27.517Z,-145.07
2018-04-04T18:07:55.779Z,-145.07
2018-04-04T18:10:24.057Z,-145.07
2018-04-04T18:12:52.319Z,-145.07
2018-04-04T18:15:20.589Z,-145.07
2018-04-04T18:17:48.859Z,-145.07
2018-04-04T18:20:17.886Z,-145.07
2018-04-04T18:22:46.176Z,-145.07
2018-04-04T18:25:14.417Z,-145.07
2018-04-04T18:27:42.682Z,-145.07
2018-04-04T18:30:10.954Z,-145.07
2018-04-04T18:32:39.424Z,-145.07
2018-04-04T18:35:08.517Z,-145.07
2018-04-04T18:37:37.546Z,-145.07
2018-04-04T18:40:05.834Z,-145.07
2018-04-04T18:42:34.130Z,-145.07
2018-04-04T18:45:02.366Z,-145.07
2018-04-04T18:47:30.641Z,-145.07
2018-04-04T18:49:59.022Z,-145.07
2018-04-04T18:52:27.241Z,-145.07
2018-04-04T18:54:55.519Z,-145.07
2018-04-04T18:57:23.791Z,-145.07
2018-04-04T18:59:52.064Z,-145.07
2018-04-04T19:02:20.329Z,-145.07
2018-04-04T19:04:48.592Z,-145.07
2018-04-04T19:07:16.863Z,-145.07
2018-04-04T19:09:45.127Z,-145.07
2018-04-04T19:12:13.433Z,-145.07
2018-04-04T19:14:41.703Z,-145.07
2018-04-04T19:17:10.060Z,-145.07
2018-04-04T19:19:38.323Z,-145.07
2018-04-04T19:22:06.594Z,-145.07
2018-04-04T19:24:34.857Z,-145.07
2018-04-04T19:27:03.893Z,-145.07
2018-04-04T19:29:32.158Z,-145.07
2018-04-04T19:32:00.427Z,-145.07
2018-04-04T19:34:28.704Z,-145.07
2018-04-04T19:36:56.973Z,-145.07
2018-04-04T19:39:25.244Z,-145.07
2018-04-04T19:41:54.266Z,-145.07
2018-04-04T19:44:22.524Z,-145.07
2018-04-04T19:46:51.004Z,-145.07
2018-04-04T19:49:19.293Z,-145.07
2018-04-04T19:51:47.567Z,-145.07
2018-04-04T19:54:15.830Z,-145.07
2018-04-04T19:56:44.100Z,-145.07
2018-04-04T19:59:12.359Z,-145.07
2018-04-04T20:01:41.417Z,-145.07
2018-04-04T20:04:09.702Z,-145.07
2018-04-04T20:06:37.964Z,-145.07
2018-04-04T20:09:06.227Z,-145.07
2018-04-04T20:11:35.026Z,-145.07
2018-04-04T20:14:03.341Z,-145.07
2018-04-04T20:16:31.602Z,-145.07
2018-04-04T20:18:59.865Z,-145.07
2018-04-04T20:21:28.128Z,-145.07
2018-04-04T20:23:56.411Z,-145.07
2018-04-04T20:26:24.707Z,-145.07
2018-04-04T20:28:52.986Z,-145.07
2018-04-04T20:31:22.009Z,-145.07
2018-04-04T20:33:50.281Z,-145.07
2018-04-04T20:36:18.585Z,-145.07
2018-04-04T20:38:47.581Z,-145.07
2018-04-04T20:41:15.838Z,-145.07
2018-04-04T20:43:44.112Z,-145.07
2018-04-04T20:46:13.054Z,-145.07
2018-04-04T20:48:41.327Z,-145.07
2018-04-04T20:51:09.659Z,-145.07
2018-04-04T20:53:37.853Z,-145.07
2018-04-04T20:56:06.214Z,-145.07
2018-04-04T20:58:34.494Z,-145.07
2018-04-04T21:01:02.762Z,-145.07
2018-04-04T21:03:31.029Z,-145.07
2018-04-04T21:05:59.288Z,-145.07
2018-04-04T21:08:28.324Z,-145.07
2018-04-04T21:10:56.589Z,-145.07
2018-04-04T21:13:24.886Z,-145.07
2018-04-04T21:15:53.150Z,-145.07
2018-04-04T21:18:21.413Z,-145.07
2018-04-04T21:20:49.784Z,-145.07
2018-04-04T21:23:18.044Z,-145.07
2018-04-04T21:25:47.078Z,-145.07
2018-04-04T21:28:15.339Z,-145.07
2018-04-04T21:30:43.602Z,-145.07
2018-04-04T21:33:11.980Z,-145.07
2018-04-04T21:35:40.262Z,-145.07
2018-04-04T21:38:08.526Z,-145.07
2018-04-04T21:40:37.001Z,-145.07
2018-04-04T21:43:05.422Z,-145.07
2018-04-04T21:45:34.334Z,-145.07
2018-04-04T21:48:02.641Z,-145.07
2018-04-04T21:50:30.953Z,-145.07
2018-04-04T21:52:59.212Z,-145.07
2018-04-04T21:55:27.547Z,-145.07
2018-04-04T21:57:55.861Z,-145.07
2018-04-04T22:00:24.223Z,-145.07
2018-04-04T22:02:53.256Z,-145.07
2018-04-04T22:05:21.520Z,-145.07
2018-04-04T22:07:49.788Z,-145.07
2018-04-04T22:10:18.050Z,-145.07
2018-04-04T22:12:47.076Z,-145.07
2018-04-04T22:15:15.351Z,-145.07
2018-04-04T22:17:43.601Z,-145.07
2018-04-04T22:20:12.634Z,-145.07
2018-04-04T22:22:40.894Z,-145.07
2018-04-04T22:25:09.162Z,-145.07
2018-04-04T22:27:37.462Z,-145.07
2018-04-04T22:30:05.763Z,-145.07
2018-04-04T22:32:34.060Z,-145.07
2018-04-04T22:35:02.365Z,-145.07
2018-04-04T22:37:30.660Z,-145.07
2018-04-04T22:39:58.952Z,-145.07
2018-04-04T22:42:27.252Z,-145.07
2018-04-04T22:44:55.548Z,-145.07
2018-04-04T22:47:24.580Z,-145.07
2018-04-04T22:49:52.842Z,-145.07
2018-04-04T22:52:21.118Z,-145.07
2018-04-04T22:54:49.370Z,-145.07
2018-04-04T22:57:18.444Z,-145.07
2018-04-04T22:59:46.739Z,-145.07
2018-04-04T23:02:15.808Z,-145.07
2018-04-04T23:04:44.105Z,-145.07
2018-04-04T23:07:13.175Z,-145.07
2018-04-04T23:09:41.468Z,-145.07
2018-04-04T23:12:09.775Z,-145.07
2018-04-04T23:14:38.840Z,-145.07
2018-04-04T23:17:07.140Z,-145.07
2018-04-04T23:19:36.201Z,-145.07
2018-04-04T23:22:04.498Z,-145.07
2018-04-04T23:24:33.571Z,-145.07
2018-04-04T23:27:01.932Z,-145.07
2018-04-04T23:29:30.225Z,-145.07
2018-04-04T23:31:58.531Z,-145.07
2018-04-04T23:34:27.593Z,-145.07
2018-04-04T23:36:55.884Z,-145.07
2018-04-04T23:39:24.179Z,-145.07
2018-04-04T23:41:53.238Z,-145.07
2018-04-04T23:44:21.532Z,-145.07
2018-04-04T23:46:49.829Z,-145.07
2018-04-04T23:49:18.892Z,-145.07
2018-04-04T23:51:47.188Z,-145.07
2018-04-04T23:54:16.256Z,-145.07
2018-04-04T23:56:44.548Z,-145.07
2018-04-04T23:59:12.850Z,-145.07
